Betts, South Dakota
Current Conditions -  °F | °C
As of 9:53 AM on Monday 26 Jan 2015 (Local Time) from KMHE Reporting Station
Clear Clear  
Wind Chill: 35°   Ceiling: Unl
Heat Index: 42°   Visibility: 10mi
Dew Point: 36°   Wind: 13mph
Humidity: 79%   Direction: 280°W
Pressure: 29.91"   Gusts: NA
Location:  43.7034°N, 98.0626°W
Report Text: KMHE 261553Z AUTO 28011KT 10SM CLR 06/02 A2991 RMK AO2 SLP140 T00560022
Loading
Personal Weather Stations






























Interactive Weather Map New forecast layout! Learn more

10-Day Weather Forecast

Advertisements
Track Severe Weather on mobile